Time;durP1;ratioP1;P1;durP2;ratioP2;P2;SDS_P1;SDS_P2;PMS_P1;PMS_P2;Temp;Humidity;BMP_temperature;BMP_pressure;BME280_temperature;BME280_humidity;BME280_pressure;Samples;Min_cycle;Max_cycle;Signal;HPM_P1;HPM_P2
2024/02/29 00:00:44;;;;;;;43.45;28.92;;;;;;;;;;5011687;28;20030;-69
2024/02/29 00:03:10;;;;;;;38.25;27.38;;;;;;;;;;5012192;28;20022;-69
2024/02/29 00:05:39;;;;;;;57.25;42.95;;;;;;;;;;5011770;28;20610;-69
2024/02/29 00:08:05;;;;;;;38.88;31.45;;;;;;;;;;5011778;28;20033;-69
2024/02/29 00:10:32;;;;;;;56.10;38.38;;;;;;;;;;5011767;28;20364;-67
2024/02/29 00:12:59;;;;;;;45.00;27.90;;;;;;;;;;5011918;28;20026;-68
2024/02/29 00:15:26;;;;;;;36.15;26.85;;;;;;;;;;5011698;28;20030;-71
2024/02/29 00:17:52;;;;;;;31.10;21.35;;;;;;;;;;5012029;28;20022;-69
2024/02/29 00:20:18;;;;;;;34.05;20.35;;;;;;;;;;5011249;28;20058;-70
2024/02/29 00:22:45;;;;;;;26.75;18.55;;;;;;;;;;5011426;28;20022;-69
2024/02/29 00:25:12;;;;;;;29.67;18.00;;;;;;;;;;5011697;28;20022;-70
2024/02/29 00:27:37;;;;;;;34.42;20.20;;;256.40;2252.80;;;;;;5011646;28;20380;-69
2024/02/29 00:30:04;;;;;;;25.33;18.27;;;256.00;2252.80;;;;;;5011236;28;20026;-68
2024/02/29 00:32:29;;;;;;;27.23;19.15;;;231.20;2252.80;;;;;;5011846;28;20125;-68
2024/02/29 00:34:55;;;;;;;27.63;17.17;;;256.00;2252.80;;;;;;5011225;28;20718;-69
2024/02/29 00:37:21;;;;;;;40.58;24.00;;;256.10;2252.80;;;;;;5011611;28;20030;-69
2024/02/29 00:39:47;;;;;;;30.13;19.05;;;256.30;2252.80;;;;;;5010814;28;20069;-70
2024/02/29 00:42:12;;;;;;;27.65;19.67;;;256.40;2252.80;;;;;;5011542;28;20466;-70
2024/02/29 00:44:38;;;;;;;48.05;26.20;;;256.40;2252.80;;;;;;4998458;28;20026;-69
2024/02/29 00:47:04;;;;;;;37.53;25.25;;;256.40;2252.80;;;;;;5011512;28;20524;-69
2024/02/29 00:49:30;;;;;;;39.47;25.95;;;256.40;2252.80;;;;;;5010884;28;20037;-68
2024/02/29 00:51:56;;;;;;;32.97;22.55;;;256.50;2252.80;;;;;;5011289;28;20108;-69
2024/02/29 00:54:24;;;;;;;32.25;21.50;;;256.50;2252.80;;;;;;5010727;28;20109;-69
2024/02/29 00:56:50;;;;;;;31.48;18.92;;;256.50;2252.80;;;;;;5011675;28;20025;-69
2024/02/29 00:59:16;;;;;;;34.42;20.02;;;256.50;2252.80;;;;;;5010150;28;20121;-69
2024/02/29 01:01:42;;;;;;;30.88;24.05;;;256.50;2252.80;;;;;;5010498;28;20448;-69
2024/02/29 01:04:07;;;;;;;25.42;16.60;;;256.30;2252.80;;;;;;5010711;28;20512;-69
2024/02/29 01:06:33;;;;;;;28.48;16.48;;;256.20;2252.80;;;;;;5011111;28;20069;-69
2024/02/29 01:08:59;;;;;;;29.30;17.15;;;256.10;2252.80;;;;;;5010370;28;20102;-69
2024/02/29 01:11:25;;;;;;;24.80;16.52;;;256.20;2252.80;;;;;;5010833;28;20030;-69
2024/02/29 01:13:51;;;;;;;29.13;17.63;;;256.30;2252.80;;;;;;5010664;28;20033;-69
2024/02/29 01:16:16;;;;;;;26.50;17.88;;;256.30;2252.80;;;;;;5010739;28;20030;-70
2024/02/29 01:18:42;;;;;;;21.52;14.27;;;256.20;2252.80;;;;;;5010574;28;20060;-69
2024/02/29 01:21:08;;;;;;;18.63;14.25;;;256.20;2252.80;;;;;;5010384;28;20093;-69
2024/02/29 01:23:34;;;;;;;21.83;14.25;;;256.20;2252.80;;;;;;5010451;28;20021;-69
2024/02/29 01:25:59;;;;;;;26.73;17.70;;;256.00;2252.80;;;;;;5010905;28;20030;-70
2024/02/29 01:28:25;;;;;;;20.65;13.23;;;231.30;2252.80;;;;;;5010225;28;20026;-69
2024/02/29 01:30:51;;;;;;;24.13;16.52;;;256.00;2252.80;;;;;;5010862;28;20026;-69
2024/02/29 01:33:17;;;;;;;29.17;21.13;;;256.00;2252.80;;;;;;4992049;28;20397;-71
2024/02/29 01:35:42;;;;;;;22.98;14.80;;;256.10;2252.80;;;;;;5010676;28;20018;-69
2024/02/29 01:38:08;;;;;;;22.73;14.57;;;256.20;2252.80;;;;;;5009963;28;20380;-69
2024/02/29 01:40:34;;;;;;;20.70;14.27;;;256.10;2252.80;;;;;;5010310;28;20129;-69
2024/02/29 01:43:00;;;;;;;27.98;17.33;;;231.30;2252.80;;;;;;5010008;28;20022;-69
2024/02/29 01:45:25;;;;;;;25.02;14.30;;;231.20;2252.80;;;;;;5010270;28;20026;-70
2024/02/29 01:47:51;;;;;;;19.48;15.27;;;231.30;2252.80;;;;;;5010151;28;20440;-69
2024/02/29 01:50:19;;;;;;;24.30;15.80;;;231.30;2252.80;;;;;;5009896;28;20503;-69
2024/02/29 01:52:45;;;;;;;22.42;15.73;;;231.30;2252.80;;;;;;5009630;28;20022;-69
2024/02/29 01:55:12;;;;;;;20.13;13.70;;;231.10;2252.80;;;;;;5010170;28;20030;-69
2024/02/29 01:57:38;;;;;;;24.77;15.38;;;231.00;2252.80;;;;;;5010247;28;20014;-69
2024/02/29 02:00:05;;;;;;;24.45;15.13;;;231.00;2252.80;;;;;;5009928;28;20034;-69
2024/02/29 02:02:31;;;;;;;24.92;17.52;;;230.90;2252.80;;;;;;4997001;28;20026;-69
2024/02/29 02:04:57;;;;;;;26.67;16.95;;;230.80;2252.80;;;;;;5009798;28;20472;-69
2024/02/29 02:07:23;;;;;;;23.20;14.02;;;230.90;2252.80;;;;;;5009877;28;20033;-69
2024/02/29 02:09:49;;;;;;;29.27;14.82;;;230.90;2252.80;;;;;;5009364;28;20029;-70
2024/02/29 02:12:16;;;;;;;18.95;14.00;;;231.00;2252.80;;;;;;5009516;28;20025;-70
2024/02/29 02:14:41;;;;;;;25.60;14.07;;;230.90;2252.80;;;;;;5009671;28;20040;-68
2024/02/29 02:17:08;;;;;;;26.33;13.73;;;230.90;2252.80;;;;;;5009970;28;20022;-69
2024/02/29 02:19:34;;;;;;;27.00;14.70;;;230.90;2252.80;;;;;;5009393;28;20427;-69
2024/02/29 02:22:03;;;;;;;23.95;14.23;;;230.90;2252.80;;;;;;4996702;28;20014;-69
2024/02/29 02:24:39;;;;;;;18.23;12.80;;;230.90;2252.80;;;;;;5009402;28;20076;-69
2024/02/29 02:27:04;;;;;;;26.92;14.27;;;231.00;2252.80;;;;;;5009339;28;20041;-69
2024/02/29 02:29:30;;;;;;;28.42;13.63;;;230.90;2252.80;;;;;;5009503;28;20036;-70
2024/02/29 02:31:56;;;;;;;22.95;13.05;;;230.90;2252.80;;;;;;5009252;28;20109;-70
2024/02/29 02:34:22;;;;;;;19.20;13.32;;;231.00;2252.80;;;;;;5009291;28;20072;-70
2024/02/29 02:36:47;;;;;;;20.00;12.90;;;231.00;2252.80;;;;;;5009086;28;20052;-70
2024/02/29 02:39:14;;;;;;;24.58;13.60;;;230.90;2252.80;;;;;;5009077;28;20044;-70
2024/02/29 02:41:42;;;;;;;19.05;12.50;;;231.00;2252.80;;;;;;5009455;28;20025;-70
2024/02/29 02:44:09;;;;;;;23.55;14.43;;;230.80;2252.80;;;;;;5009381;28;20138;-70
2024/02/29 02:46:35;;;;;;;24.95;15.93;;;231.00;2252.80;;;;;;5009182;28;20111;-70
2024/02/29 02:49:00;;;;;;;23.60;15.68;;;231.00;2252.80;;;;;;5009107;28;20053;-70
2024/02/29 02:51:26;;;;;;;20.50;13.02;;;230.90;2252.80;;;;;;5009044;28;20058;-69
2024/02/29 02:53:52;;;;;;;22.40;13.88;;;231.00;2252.80;;;;;;5009060;28;20022;-69
2024/02/29 02:56:18;;;;;;;22.60;15.32;;;231.00;2252.80;;;;;;5008817;28;20439;-69
2024/02/29 02:58:44;;;;;;;20.52;13.75;;;231.00;2252.80;;;;;;5008881;28;20030;-68
2024/02/29 03:01:09;;;;;;;26.00;15.65;;;231.10;2252.80;;;;;;5009309;28;20026;-69
2024/02/29 03:03:35;;;;;;;23.50;16.23;;;231.20;2252.80;;;;;;5008819;28;20030;-69
2024/02/29 03:06:01;;;;;;;27.63;16.02;;;231.30;2252.80;;;;;;5009013;28;20025;-68
2024/02/29 03:08:26;;;;;;;25.48;19.25;;;256.00;2252.80;;;;;;5008769;28;20101;-69
2024/02/29 03:10:52;;;;;;;21.85;13.35;;;256.00;2252.80;;;;;;5008804;28;20060;-70
2024/02/29 03:13:18;;;;;;;22.15;14.10;;;231.20;2252.80;;;;;;5008630;28;20022;-69
2024/02/29 03:15:44;;;;;;;22.75;15.40;;;231.10;2252.80;;;;;;5009114;28;20026;-69
2024/02/29 03:18:09;;;;;;;21.67;15.07;;;231.10;2252.80;;;;;;5009018;28;20470;-70
2024/02/29 03:20:35;;;;;;;29.35;20.88;;;231.10;2252.80;;;;;;5008348;28;20045;-69
2024/02/29 03:23:01;;;;;;;25.05;16.63;;;231.10;2252.80;;;;;;5009106;28;20034;-68
2024/02/29 03:25:27;;;;;;;25.25;13.65;;;231.20;2252.80;;;;;;5012594;28;20104;-69
2024/02/29 03:27:53;;;;;;;18.17;11.25;;;231.20;2252.80;;;;;;5012785;28;20022;-71
2024/02/29 03:30:18;;;;;;;18.23;12.90;;;256.00;2252.80;;;;;;5012575;28;20029;-69
2024/02/29 03:32:44;;;;;;;22.70;14.95;;;256.10;2252.80;;;;;;5012763;28;20368;-69
2024/02/29 03:35:10;;;;;;;20.70;12.65;;;256.10;2252.80;;;;;;5013019;28;20025;-69
2024/02/29 03:37:36;;;;;;;19.38;13.40;;;231.30;2252.80;;;;;;5012425;28;20379;-69
2024/02/29 03:40:03;;;;;;;17.83;12.85;;;231.20;2252.80;;;;;;5012631;28;20466;-69
2024/02/29 03:42:30;;;;;;;25.85;13.88;;;231.20;2252.80;;;;;;5012316;28;20034;-69
2024/02/29 03:44:55;;;;;;;25.40;14.02;;;231.10;2252.80;;;;;;5012488;28;20379;-69
2024/02/29 03:47:21;;;;;;;21.27;14.45;;;230.90;2252.80;;;;;;5012377;28;20026;-68
2024/02/29 03:49:47;;;;;;;19.98;13.23;;;230.80;2252.80;;;;;;5012292;28;20113;-69
2024/02/29 03:52:13;;;;;;;22.88;15.63;;;230.90;2252.80;;;;;;5012182;28;20108;-70
2024/02/29 03:54:38;;;;;;;24.65;16.42;;;230.90;2252.80;;;;;;5012335;28;20056;-69
2024/02/29 03:57:04;;;;;;;28.20;17.23;;;231.00;2252.80;;;;;;5012142;28;20061;-69
2024/02/29 03:59:31;;;;;;;22.30;19.77;;;231.20;2252.80;;;;;;5012550;28;20033;-69
2024/02/29 04:01:57;;;;;;;26.33;21.70;;;231.30;2252.80;;;;;;5011900;28;20022;-71
2024/02/29 04:04:22;;;;;;;23.15;16.38;;;231.30;2252.80;;;;;;5012369;28;20030;-68
2024/02/29 04:06:48;;;;;;;20.98;15.40;;;231.30;2252.80;;;;;;5011895;28;20021;-69
2024/02/29 04:09:14;;;;;;;24.42;17.00;;;256.00;2252.80;;;;;;5012031;28;20026;-75
2024/02/29 04:11:40;;;;;;;25.60;15.40;;;256.10;2252.80;;;;;;5011989;28;20491;-71
2024/02/29 04:14:06;;;;;;;23.42;14.95;;;256.10;2252.80;;;;;;5012064;28;20030;-69
2024/02/29 04:16:36;;;;;;;20.70;15.30;;;256.00;2252.80;;;;;;5011662;28;20034;-72
2024/02/29 04:19:05;;;;;;;20.25;14.02;;;256.00;2252.80;;;;;;5011536;28;20014;-70
2024/02/29 04:21:34;;;;;;;28.88;14.80;;;256.00;2252.80;;;;;;5011553;28;20041;-69
2024/02/29 04:24:01;;;;;;;18.35;14.27;;;231.30;2252.80;;;;;;5011646;28;20089;-69
2024/02/29 04:26:28;;;;;;;22.95;16.15;;;231.30;2252.80;;;;;;5011166;28;20499;-72
2024/02/29 04:28:53;;;;;;;23.25;13.65;;;231.30;2252.80;;;;;;5011803;28;20030;-69
2024/02/29 04:31:19;;;;;;;24.52;15.63;;;231.10;2252.80;;;;;;5011521;28;20018;-69
2024/02/29 04:33:45;;;;;;;25.85;15.93;;;231.20;2252.80;;;;;;5011336;28;20032;-69
2024/02/29 04:36:11;;;;;;;24.73;15.23;;;231.30;2252.80;;;;;;5010522;28;20036;-70
2024/02/29 04:38:37;;;;;;;23.25;14.98;;;231.30;2252.80;;;;;;5011317;28;20045;-69
2024/02/29 04:41:03;;;;;;;21.45;14.75;;;231.30;2252.80;;;;;;5011150;28;20034;-70
2024/02/29 04:43:29;;;;;;;25.63;15.40;;;231.20;2252.80;;;;;;5011311;28;20030;-70
2024/02/29 04:45:57;;;;;;;41.97;32.17;;;231.20;2252.80;;;;;;5011298;28;20048;-69
2024/02/29 04:48:23;;;;;;;22.95;16.60;;;231.30;2252.80;;;;;;5011619;28;20026;-69
2024/02/29 04:50:49;;;;;;;28.95;18.75;;;256.30;2252.80;;;;;;5010935;28;20018;-71
2024/02/29 04:53:15;;;;;;;23.92;19.30;;;256.10;2252.80;;;;;;5011003;28;20038;-69
2024/02/29 04:55:41;;;;;;;18.10;13.60;;;256.10;2252.80;;;;;;5011095;28;20072;-70
2024/02/29 04:58:07;;;;;;;25.05;14.80;;;256.00;2252.80;;;;;;5011282;28;20506;-71
2024/02/29 05:00:33;;;;;;;20.98;14.07;;;231.30;2252.80;;;;;;5010856;28;20038;-69
2024/02/29 05:02:58;;;;;;;23.85;14.15;;;256.00;2252.80;;;;;;5011122;28;20021;-69
2024/02/29 05:05:25;;;;;;;19.58;11.82;;;256.10;2252.80;;;;;;5010921;28;20022;-69
2024/02/29 05:07:51;;;;;;;21.50;14.20;;;256.00;2252.80;;;;;;5010757;28;20026;-69
2024/02/29 05:10:16;;;;;;;21.85;14.15;;;256.00;2252.80;;;;;;5010487;28;20379;-71
2024/02/29 05:12:42;;;;;;;22.10;14.70;;;231.30;2252.80;;;;;;5010959;28;20022;-72
2024/02/29 05:15:08;;;;;;;26.58;13.95;;;256.00;2252.80;;;;;;5010663;28;20026;-69
2024/02/29 05:17:34;;;;;;;23.38;13.68;;;256.10;2252.80;;;;;;5010940;28;20022;-72
2024/02/29 05:20:00;;;;;;;24.70;13.93;;;256.10;2252.80;;;;;;5010257;28;20529;-73
2024/02/29 05:22:26;;;;;;;22.02;12.90;;;256.10;2252.80;;;;;;4993367;28;20057;-69
2024/02/29 05:24:52;;;;;;;21.65;13.98;;;256.20;2252.80;;;;;;5010153;28;20101;-69
2024/02/29 05:27:17;;;;;;;24.27;14.50;;;256.30;2252.80;;;;;;5010809;28;20113;-70
2024/02/29 05:29:43;;;;;;;19.70;13.32;;;256.30;2252.80;;;;;;5010239;28;20030;-70
2024/02/29 05:32:09;;;;;;;21.40;13.52;;;256.00;2252.80;;;;;;5010576;28;20022;-69
2024/02/29 05:34:34;;;;;;;22.73;13.60;;;256.20;2252.80;;;;;;5009813;28;20072;-73
2024/02/29 05:37:00;;;;;;;23.00;14.60;;;256.10;2252.80;;;;;;5010494;28;20077;-69
2024/02/29 05:39:26;;;;;;;22.00;13.93;;;256.10;2252.80;;;;;;5010058;28;20040;-69
2024/02/29 05:41:55;;;;;;;23.63;15.27;;;256.00;2252.80;;;;;;5010164;28;20025;-71
2024/02/29 05:44:22;;;;;;;24.33;15.70;;;256.20;2252.80;;;;;;5010179;28;20022;-67
2024/02/29 05:46:47;;;;;;;21.15;14.77;;;256.30;2252.80;;;;;;5004311;28;20030;-73
2024/02/29 05:49:13;;;;;;;26.33;16.58;;;256.30;2252.80;;;;;;5011938;28;20076;-69
2024/02/29 05:51:39;;;;;;;28.15;18.00;;;256.40;2252.80;;;;;;5009974;28;20029;-69
2024/02/29 05:54:04;;;;;;;36.97;20.80;;;256.40;2252.80;;;;;;5009742;28;20156;-74
2024/02/29 05:56:30;;;;;;;33.10;20.73;;;256.50;2252.80;;;;;;5009884;28;20033;-75
2024/02/29 05:58:56;;;;;;;29.30;19.92;;;256.50;2252.80;;;;;;5009636;28;20026;-75
2024/02/29 06:01:22;;;;;;;36.00;22.27;;;256.60;2252.80;;;;;;5009803;28;20086;-69
2024/02/29 06:03:48;;;;;;;32.80;19.25;;;256.60;2252.80;;;;;;5011249;28;20468;-72
2024/02/29 06:06:16;;;;;;;35.03;23.35;;;256.80;2252.80;;;;;;5002531;28;20033;-73
2024/02/29 06:08:42;;;;;;;24.30;16.75;;;256.70;2252.80;;;;;;5009683;28;20480;-69
2024/02/29 06:11:13;;;;;;;29.33;21.30;;;256.50;2252.80;;;;;;5008701;28;20022;-71
2024/02/29 06:13:40;;;;;;;23.92;16.42;;;256.50;2252.80;;;;;;5013913;28;20041;-69
2024/02/29 06:16:06;;;;;;;27.40;18.45;;;256.50;2252.80;;;;;;5010033;28;20380;-77
2024/02/29 06:18:33;;;;;;;29.92;18.23;;;256.60;2252.80;;;;;;5009644;28;20044;-75
2024/02/29 06:20:59;;;;;;;43.95;29.38;;;256.80;2252.80;;;;;;5008934;28;20049;-74
2024/02/29 06:23:25;;;;;;;50.45;33.75;;;256.90;2252.80;;;;;;5009236;28;20026;-75
2024/02/29 06:25:50;;;;;;;40.30;28.92;;;281.60;2278.40;;;;;;5009398;28;20359;-76
2024/02/29 06:28:17;;;;;;;32.65;22.20;;;281.60;2278.40;;;;;;5009055;28;20080;-70
2024/02/29 06:30:43;;;;;;;36.03;26.35;;;281.70;2278.40;;;;;;5009435;28;20034;-75
2024/02/29 06:33:08;;;;;;;40.03;28.40;;;281.70;2278.40;;;;;;5009056;28;20167;-75
2024/02/29 06:35:34;;;;;;;31.08;22.67;;;281.70;2278.40;;;;;;5009215;28;20025;-69
2024/02/29 06:38:00;;;;;;;119.10;80.68;;;281.80;2278.40;;;;;;5009136;28;20108;-74
2024/02/29 06:40:26;;;;;;;110.47;73.32;;;281.80;2278.40;;;;;;5008913;28;20034;-74
2024/02/29 06:42:51;;;;;;;119.35;77.43;;;281.80;2278.40;;;;;;5006096;28;20472;-76
2024/02/29 06:45:17;;;;;;;105.88;69.97;;;282.10;2278.40;;;;;;5008817;28;20026;-71
2024/02/29 06:47:43;;;;;;;77.65;55.33;;;281.70;2278.40;;;;;;5009540;28;20029;-74
2024/02/29 06:50:12;;;;;;;57.00;39.33;;;281.70;2278.40;;;;;;5009302;28;20025;-74
2024/02/29 06:52:39;;;;;;;51.17;34.08;;;281.60;2278.40;;;;;;5008951;28;20029;-74
2024/02/29 06:55:08;;;;;;;63.53;44.40;;;281.80;2278.40;;;;;;5009358;28;20026;-72
2024/02/29 06:57:37;;;;;;;88.63;61.65;;;281.90;2278.40;;;;;;5008926;28;20381;-74
2024/02/29 07:00:05;;;;;;;83.78;57.75;;;282.10;2278.40;;;;;;4995513;28;20045;-75
2024/02/29 07:02:32;;;;;;;69.20;48.47;;;282.30;2278.40;;;;;;5009251;28;20057;-73
2024/02/29 07:04:58;;;;;;;55.55;38.78;;;282.40;2278.40;;;;;;5008576;28;20026;-75
2024/02/29 07:07:25;;;;;;;56.50;41.40;;;282.40;2278.40;;;;;;5008556;28;20014;-72
2024/02/29 07:09:54;;;;;;;61.95;42.28;;;282.50;2278.40;;;;;;5008572;28;20115;-77
2024/02/29 07:12:20;;;;;;;63.17;45.22;;;282.40;2278.40;;;;;;4995723;28;20022;-75
2024/02/29 07:14:46;;;;;;;78.85;64.57;;;282.30;2278.40;;;;;;5008517;28;20096;-77
2024/02/29 07:17:12;;;;;;;73.18;49.30;;;282.20;2278.40;;;;;;4995931;28;20033;-78
2024/02/29 07:19:39;;;;;;;69.35;50.38;;;282.10;2278.40;;;;;;5008009;28;20042;-78
2024/02/29 07:22:05;;;;;;;80.90;53.63;;;282.30;2278.40;;;;;;5008201;28;20534;-72
2024/02/29 07:24:31;;;;;;;82.75;56.15;;;282.30;2278.40;;;;;;5008371;28;20468;-77
2024/02/29 07:26:57;;;;;;;94.13;66.07;;;282.20;2278.40;;;;;;5008084;28;20030;-72
2024/02/29 07:29:23;;;;;;;96.65;67.78;;;282.10;2278.40;;;;;;5008120;28;20036;-76
2024/02/29 07:31:50;;;;;;;88.78;63.47;;;282.10;2278.40;;;;;;5008338;28;20029;-78
2024/02/29 07:34:17;;;;;;;157.77;104.35;;;282.30;2278.40;;;;;;4990054;28;20041;-71
2024/02/29 07:36:43;;;;;;;97.03;68.90;;;282.40;2278.40;;;;;;5007887;28;20033;-77
2024/02/29 07:39:11;;;;;;;51.05;35.25;;;307.20;2304.00;;;;;;5008327;28;20029;-78
2024/02/29 07:41:38;;;;;;;48.45;37.03;;;307.20;2304.00;;;;;;4995298;28;20029;-80
2024/02/29 07:44:04;;;;;;;66.93;51.28;;;307.30;2304.00;;;;;;5007992;28;20030;-74
2024/02/29 07:46:29;;;;;;;61.00;45.33;;;307.40;2304.00;;;;;;5008214;28;20058;-78
2024/02/29 07:48:55;;;;;;;77.47;57.90;;;307.30;2304.00;;;;;;5008155;28;20110;-74
2024/02/29 07:51:21;;;;;;;84.55;62.50;;;307.30;2304.00;;;;;;5008406;28;20449;-76
2024/02/29 07:53:47;;;;;;;138.82;90.85;;;282.50;2278.40;;;;;;5007507;28;20026;-77
2024/02/29 07:56:12;;;;;;;155.43;93.13;;;307.20;2304.00;;;;;;5008081;28;20030;-72
2024/02/29 07:58:38;;;;;;;148.40;93.93;;;282.40;2278.40;;;;;;5007976;28;20026;-76
2024/02/29 08:01:04;;;;;;;139.27;90.95;;;282.00;2278.40;;;;;;5008346;28;20030;-77
2024/02/29 08:03:30;;;;;;;149.10;96.60;;;282.00;2278.40;;;;;;5007607;28;20022;-73
2024/02/29 08:05:56;;;;;;;131.32;88.40;;;281.80;2278.40;;;;;;5008127;28;20025;-71
2024/02/29 08:08:22;;;;;;;149.65;89.95;;;281.60;2278.40;;;;;;5007708;28;20036;-74
2024/02/29 08:10:47;;;;;;;131.23;85.75;;;282.00;2278.40;;;;;;5010659;28;20026;-72
2024/02/29 08:13:13;;;;;;;134.73;83.32;;;282.00;2278.40;;;;;;5011383;28;20085;-76
2024/02/29 08:15:39;;;;;;;134.05;88.95;;;282.40;2278.40;;;;;;5011435;28;20030;-73
2024/02/29 08:18:06;;;;;;;140.63;90.97;;;307.30;2304.00;;;;;;5011186;28;20026;-72
2024/02/29 08:20:32;;;;;;;135.73;93.10;;;307.50;2304.00;;;;;;5011374;28;20054;-72
2024/02/29 08:22:57;;;;;;;121.97;78.63;;;307.70;2304.00;;;;;;5010646;28;20384;-73
2024/02/29 08:25:25;;;;;;;114.88;78.80;;;307.90;2304.00;;;;;;5011508;28;20032;-72
2024/02/29 08:27:52;;;;;;;122.47;80.88;;;308.00;2304.00;;;;;;5015014;28;20376;-73
2024/02/29 08:30:18;;;;;;;110.95;77.45;;;332.90;2329.60;;;;;;5015386;28;20095;-76
2024/02/29 08:32:44;;;;;;;127.95;95.75;;;308.10;2304.00;;;;;;5019042;28;20018;-73
2024/02/29 08:35:10;;;;;;;154.77;113.38;;;333.00;2329.60;;;;;;5006148;28;20465;-73
2024/02/29 08:37:36;;;;;;;120.13;80.80;;;333.10;2329.60;;;;;;5010587;28;20033;-72
2024/02/29 08:40:04;;;;;;;110.70;78.22;;;333.30;2329.60;;;;;;5021836;28;20033;-73
2024/02/29 08:42:30;;;;;;;101.70;69.32;;;333.40;2329.60;;;;;;5019219;28;20411;-72
2024/02/29 08:44:57;;;;;;;110.40;77.43;;;;;;;;;;5010779;28;20384;-72
2024/02/29 08:47:23;;;;;;;176.63;124.30;;;358.40;2329.60;;;;;;5010801;28;20029;-73
2024/02/29 08:49:48;;;;;;;145.27;109.38;;;333.60;2329.60;;;;;;5010520;28;20030;-73
2024/02/29 08:52:14;;;;;;;115.07;80.75;;;333.60;2329.60;;;;;;5010768;28;20520;-73
2024/02/29 08:54:40;;;;;;;121.05;85.03;;;358.70;2329.60;;;;;;5010850;28;20500;-73
2024/02/29 08:57:07;;;;;;;133.30;87.72;;;358.70;2329.60;;;;;;5010377;28;20468;-72
2024/02/29 08:59:33;;;;;;;99.93;70.70;;;358.80;2329.60;;;;;;5010452;28;20029;-72
2024/02/29 09:02:00;;;;;;;98.95;72.20;;;358.80;2329.60;;;;;;5010568;28;20610;-72
2024/02/29 09:04:26;;;;;;;102.53;75.78;;;358.80;2329.60;;;;;;5010338;28;20232;-72
2024/02/29 09:06:52;;;;;;;97.32;71.70;;;358.60;2329.60;;;;;;5010580;28;20029;-73
2024/02/29 09:09:18;;;;;;;108.13;75.97;;;358.70;2329.60;;;;;;5010458;28;20085;-73
2024/02/29 09:11:44;;;;;;;76.38;55.60;;;358.50;2329.60;;;;;;5010602;28;20022;-76
2024/02/29 09:14:10;;;;;;;95.18;73.25;;;358.70;2329.60;;;;;;5009101;28;20361;-75
2024/02/29 09:16:37;;;;;;;116.68;86.63;;;358.50;2329.60;;;;;;5012364;28;20373;-75
2024/02/29 09:19:03;;;;;;;117.28;88.45;;;358.70;2329.60;;;;;;5018697;28;20109;-76
2024/02/29 09:21:28;;;;;;;141.60;97.00;;;358.70;2329.60;;;;;;5009505;28;20109;-76
2024/02/29 09:23:54;;;;;;;111.88;81.82;;;358.50;2329.60;;;;;;5009879;28;20038;-77
2024/02/29 09:26:20;;;;;;;115.18;86.43;;;358.40;2329.60;;;;;;5010192;28;20037;-76
2024/02/29 09:28:47;;;;;;;128.48;93.03;;;358.70;2329.60;;;;;;5009617;28;20022;-77
2024/02/29 09:31:13;;;;;;;115.07;82.47;;;359.00;2329.60;;;;;;5010469;28;20037;-77
2024/02/29 09:33:40;;;;;;;104.15;78.28;;;359.10;2329.60;;;;;;5010415;28;20068;-75
2024/02/29 09:36:10;;;;;;;132.77;91.78;;;;;;;;;;5010187;28;20022;-78
2024/02/29 09:38:36;;;;;;;125.80;91.57;;;;;;;;;;5009794;28;20380;-77
2024/02/29 09:41:04;;;;;;;124.82;92.50;;;;;;;;;;5012055;28;20107;-75
2024/02/29 09:43:31;;;;;;;114.30;79.75;;;;;;;;;;5010052;28;20160;-76
2024/02/29 09:46:02;;;;;;;98.00;72.65;;;;;;;;;;5009872;28;20025;-76
2024/02/29 09:48:29;;;;;;;116.72;84.22;;;;;;;;;;5009813;28;20044;-76
2024/02/29 09:51:01;;;;;;;126.30;93.75;;;;;;;;;;5009890;28;20025;-76
2024/02/29 09:53:28;;;;;;;90.15;68.68;;;;;;;;;;5009789;28;20488;-76
2024/02/29 09:55:57;;;;;;;96.30;68.90;;;;;;;;;;5008799;28;20029;-76
2024/02/29 09:58:24;;;;;;;140.95;113.15;;;;;;;;;;5007148;28;20025;-75
2024/02/29 10:00:50;;;;;;;108.78;79.28;;;;;;;;;;5009933;28;20037;-76
2024/02/29 10:03:17;;;;;;;86.05;60.13;;;;;;;;;;5013066;28;20440;-76
2024/02/29 10:05:44;;;;;;;95.38;72.38;;;;;;;;;;4996895;28;20022;-76
2024/02/29 10:08:10;;;;;;;81.63;60.15;;;;;;;;;;5009621;28;20076;-76
2024/02/29 10:10:36;;;;;;;85.57;61.70;;;;;;;;;;5009658;28;20380;-76
2024/02/29 10:13:02;;;;;;;96.38;69.82;;;384.30;2329.60;;;;;;5005966;28;20049;-76
2024/02/29 10:15:28;;;;;;;83.28;56.70;;;384.30;2329.60;;;;;;5018919;28;20034;-76
2024/02/29 10:17:55;;;;;;;78.47;58.13;;;384.30;2329.60;;;;;;5009589;28;20372;-75
2024/02/29 10:20:21;;;;;;;80.38;57.72;;;384.10;2329.60;;;;;;5008341;28;20436;-76
2024/02/29 10:22:49;;;;;;;73.55;54.42;;;384.20;2329.60;;;;;;5009834;28;20025;-76
2024/02/29 10:25:14;;;;;;;84.43;58.78;;;384.40;2329.60;;;;;;5010631;28;20029;-76
2024/02/29 10:27:41;;;;;;;136.85;92.45;;;384.30;2329.60;;;;;;5001871;28;20369;-76
2024/02/29 10:30:15;;;;;;;132.13;88.15;;;384.30;2329.60;;;;;;5009796;28;20026;-76
2024/02/29 10:32:42;;;;;;;102.75;66.70;;;384.10;2329.60;;;;;;5008526;28;20025;-76
2024/02/29 10:35:18;;;;;;;117.07;69.45;;;384.20;2329.60;;;;;;4991657;28;20673;-76
2024/02/29 10:37:49;;;;;;;298.88;159.50;;;384.50;2329.60;;;;;;5009064;28;20018;-75
2024/02/29 10:40:15;;;;;;;319.55;154.32;;;359.30;2329.60;;;;;;5008982;28;20037;-76
2024/02/29 10:42:42;;;;;;;159.60;86.18;;;359.20;2329.60;;;;;;5008976;28;20053;-76
2024/02/29 10:45:18;;;;;;;101.10;63.50;;;359.30;2329.60;;;;;;5009177;28;20030;-76
2024/02/29 10:47:58;;;;;;;120.80;71.95;;;359.20;2329.60;;;;;;5009323;28;20531;-76
2024/02/29 10:50:25;;;;;;;106.05;66.35;;;359.00;2329.60;;;;;;5009088;28;20026;-76
2024/02/29 10:53:06;;;;;;;67.15;43.35;;;359.20;2329.60;;;;;;5008857;28;20033;-76
2024/02/29 10:55:39;;;;;;;62.00;46.13;;;384.10;2329.60;;;;;;5008927;28;20022;-75
2024/02/29 10:58:22;;;;;;;60.90;40.70;;;359.20;2329.60;;;;;;5009083;28;20014;-76
2024/02/29 11:00:48;;;;;;;58.92;42.42;;;384.20;2329.60;;;;;;5008790;28;20376;-76
2024/02/29 11:03:15;;;;;;;107.45;78.07;;;384.10;2329.60;;;;;;5008977;28;20561;-76
2024/02/29 11:05:42;;;;;;;78.07;67.88;;;384.30;2329.60;;;;;;5009057;28;20515;-76
2024/02/29 11:08:08;;;;;;;46.05;31.23;;;409.60;2355.20;;;;;;5008840;28;20026;-76
2024/02/29 11:10:34;;;;;;;44.28;30.48;;;409.90;2355.20;;;;;;5008917;28;20025;-76
2024/02/29 11:13:03;;;;;;;77.63;59.28;;;;;;;;;;5008889;28;20384;-75
2024/02/29 11:15:30;;;;;;;68.35;52.80;;;;;;;;;;5008710;28;20033;-76
2024/02/29 11:17:57;;;;;;;44.53;32.78;;;;;;;;;;5008959;28;20026;-75
2024/02/29 11:20:24;;;;;;;36.88;26.08;;;;;;;;;;5008448;28;20574;-76
2024/02/29 11:23:02;;;;;;;37.20;26.90;;;;;;;;;;5008649;28;20033;-76
2024/02/29 11:25:29;;;;;;;56.05;41.72;;;;;;;;;;5008580;28;20029;-76
2024/02/29 11:27:56;;;;;;;59.42;40.65;;;;;;;;;;5008579;28;20438;-75
2024/02/29 11:30:23;;;;;;;46.58;29.75;;;;;;;;;;5008665;28;20096;-76
2024/02/29 11:32:51;;;;;;;57.42;43.75;;;;;;;;;;5008854;28;20010;-76
2024/02/29 11:35:17;;;;;;;43.85;31.90;;;;;;;;;;5008623;28;20034;-76
2024/02/29 11:37:44;;;;;;;57.08;39.70;;;;;;;;;;5008592;28;20022;-76
2024/02/29 11:40:15;;;;;;;53.53;38.97;;;;;;;;;;5008702;28;20046;-76
2024/02/29 11:42:42;;;;;;;40.30;28.42;;;;;;;;;;5008653;28;20014;-76
2024/02/29 11:45:09;;;;;;;39.45;27.13;;;;;;;;;;5010674;28;20484;-75
2024/02/29 11:47:35;;;;;;;43.58;31.90;;;;;;;;;;5012234;28;20097;-76
2024/02/29 11:50:02;;;;;;;47.13;30.92;;;;;;;;;;5012176;28;20101;-76
2024/02/29 11:52:27;;;;;;;47.10;30.30;;;461.10;2380.80;;;;;;5012151;28;20376;-76
2024/02/29 11:54:53;;;;;;;38.35;29.33;;;436.00;2355.20;;;;;;5012176;28;20026;-75
2024/02/29 11:57:23;;;;;;;78.82;59.83;;;435.60;2355.20;;;;;;5012281;28;20014;-76
2024/02/29 11:59:48;;;;;;;48.80;33.58;;;436.10;2355.20;;;;;;5011994;28;20026;-76
2024/02/29 12:02:15;;;;;;;39.30;28.88;;;461.10;2380.80;;;;;;5012255;28;20022;-73
2024/02/29 12:04:41;;;;;;;42.42;29.80;;;460.80;2380.80;;;;;;5012263;28;20033;-76
2024/02/29 12:07:07;;;;;;;49.22;31.70;;;435.60;2355.20;;;;;;5011649;28;20041;-76
2024/02/29 12:09:33;;;;;;;118.93;95.03;;;460.80;2380.80;;;;;;5001324;28;20441;-76